sensor_id;sensor_type;location;lat;lon;timestamp;P1;durP1;ratioP1;P2;durP2;ratioP2
55031;SDS011;40928;51.076;7.950;2023-04-03T00:00:47;2.50;;;1.23;;
55031;SDS011;40928;51.076;7.950;2023-04-03T00:03:14;1.58;;;1.00;;
55031;SDS011;40928;51.076;7.950;2023-04-03T00:05:40;1.73;;;1.00;;
55031;SDS011;40928;51.076;7.950;2023-04-03T00:08:06;2.03;;;1.30;;
55031;SDS011;40928;51.076;7.950;2023-04-03T00:10:33;5.60;;;1.33;;
55031;SDS011;40928;51.076;7.950;2023-04-03T00:12:59;4.55;;;1.42;;
55031;SDS011;40928;51.076;7.950;2023-04-03T00:15:24;1.98;;;0.90;;
55031;SDS011;40928;51.076;7.950;2023-04-03T00:17:50;2.10;;;1.10;;
55031;SDS011;40928;51.076;7.950;2023-04-03T00:20:15;2.53;;;1.10;;
55031;SDS011;40928;51.076;7.950;2023-04-03T00:22:41;1.85;;;1.30;;
55031;SDS011;40928;51.076;7.950;2023-04-03T00:25:07;3.17;;;0.82;;
55031;SDS011;40928;51.076;7.950;2023-04-03T00:27:33;3.00;;;1.17;;
55031;SDS011;40928;51.076;7.950;2023-04-03T00:30:00;3.22;;;1.10;;
55031;SDS011;40928;51.076;7.950;2023-04-03T00:32:27;4.15;;;1.00;;
55031;SDS011;40928;51.076;7.950;2023-04-03T00:34:52;2.78;;;1.08;;
55031;SDS011;40928;51.076;7.950;2023-04-03T00:37:18;1.38;;;1.10;;
55031;SDS011;40928;51.076;7.950;2023-04-03T00:39:43;2.38;;;1.00;;
55031;SDS011;40928;51.076;7.950;2023-04-03T00:42:09;6.05;;;1.38;;
55031;SDS011;40928;51.076;7.950;2023-04-03T00:47:00;2.40;;;1.30;;
55031;SDS011;40928;51.076;7.950;2023-04-03T00:49:28;3.15;;;0.95;;
55031;SDS011;40928;51.076;7.950;2023-04-03T00:51:54;2.63;;;1.33;;
55031;SDS011;40928;51.076;7.950;2023-04-03T00:54:22;1.95;;;1.10;;
55031;SDS011;40928;51.076;7.950;2023-04-03T00:56:48;3.03;;;1.25;;
55031;SDS011;40928;51.076;7.950;2023-04-03T00:59:17;1.88;;;1.08;;
55031;SDS011;40928;51.076;7.950;2023-04-03T01:01:51;2.05;;;1.73;;
55031;SDS011;40928;51.076;7.950;2023-04-03T01:04:30;1.67;;;1.20;;
55031;SDS011;40928;51.076;7.950;2023-04-03T01:06:59;2.65;;;1.67;;
55031;SDS011;40928;51.076;7.950;2023-04-03T01:09:27;1.67;;;0.88;;
55031;SDS011;40928;51.076;7.950;2023-04-03T01:11:54;1.25;;;0.93;;
55031;SDS011;40928;51.076;7.950;2023-04-03T01:14:42;1.95;;;0.88;;
55031;SDS011;40928;51.076;7.950;2023-04-03T01:20:10;4.13;;;1.20;;
55031;SDS011;40928;51.076;7.950;2023-04-03T01:25:39;6.18;;;1.40;;
55031;SDS011;40928;51.076;7.950;2023-04-03T01:28:08;2.22;;;1.38;;
55031;SDS011;40928;51.076;7.950;2023-04-03T01:30:45;2.92;;;1.50;;
55031;SDS011;40928;51.076;7.950;2023-04-03T01:33:16;4.72;;;1.00;;
55031;SDS011;40928;51.076;7.950;2023-04-03T01:35:42;1.33;;;0.95;;
55031;SDS011;40928;51.076;7.950;2023-04-03T01:38:08;6.05;;;1.25;;
55031;SDS011;40928;51.076;7.950;2023-04-03T01:40:33;4.22;;;1.17;;
55031;SDS011;40928;51.076;7.950;2023-04-03T01:42:59;1.48;;;1.10;;
55031;SDS011;40928;51.076;7.950;2023-04-03T01:45:25;5.97;;;1.30;;
55031;SDS011;40928;51.076;7.950;2023-04-03T01:47:50;3.33;;;1.38;;
55031;SDS011;40928;51.076;7.950;2023-04-03T01:50:16;2.83;;;1.27;;
55031;SDS011;40928;51.076;7.950;2023-04-03T01:52:42;3.78;;;1.15;;
55031;SDS011;40928;51.076;7.950;2023-04-03T01:55:07;1.45;;;1.10;;
55031;SDS011;40928;51.076;7.950;2023-04-03T01:57:33;2.53;;;1.52;;
55031;SDS011;40928;51.076;7.950;2023-04-03T01:59:58;1.13;;;0.80;;
55031;SDS011;40928;51.076;7.950;2023-04-03T02:02:24;1.42;;;0.85;;
55031;SDS011;40928;51.076;7.950;2023-04-03T02:04:51;1.10;;;0.75;;
55031;SDS011;40928;51.076;7.950;2023-04-03T02:07:17;4.25;;;1.27;;
55031;SDS011;40928;51.076;7.950;2023-04-03T02:09:42;1.52;;;0.90;;
55031;SDS011;40928;51.076;7.950;2023-04-03T02:12:08;1.42;;;1.17;;
55031;SDS011;40928;51.076;7.950;2023-04-03T02:14:33;3.75;;;1.42;;
55031;SDS011;40928;51.076;7.950;2023-04-03T02:17:00;3.22;;;1.13;;
55031;SDS011;40928;51.076;7.950;2023-04-03T02:19:30;3.88;;;1.45;;
55031;SDS011;40928;51.076;7.950;2023-04-03T02:21:56;2.05;;;0.80;;
55031;SDS011;40928;51.076;7.950;2023-04-03T02:24:21;2.08;;;1.30;;
55031;SDS011;40928;51.076;7.950;2023-04-03T02:26:47;1.30;;;0.98;;
55031;SDS011;40928;51.076;7.950;2023-04-03T02:29:12;2.30;;;1.13;;
55031;SDS011;40928;51.076;7.950;2023-04-03T02:31:38;2.03;;;1.15;;
55031;SDS011;40928;51.076;7.950;2023-04-03T02:34:04;3.50;;;1.20;;
55031;SDS011;40928;51.076;7.950;2023-04-03T02:36:30;1.75;;;1.27;;
55031;SDS011;40928;51.076;7.950;2023-04-03T02:38:58;3.55;;;1.20;;
55031;SDS011;40928;51.076;7.950;2023-04-03T02:41:24;2.28;;;1.13;;
55031;SDS011;40928;51.076;7.950;2023-04-03T02:43:54;1.65;;;1.00;;
55031;SDS011;40928;51.076;7.950;2023-04-03T02:46:20;1.25;;;1.15;;
55031;SDS011;40928;51.076;7.950;2023-04-03T02:48:45;1.58;;;1.23;;
55031;SDS011;40928;51.076;7.950;2023-04-03T02:51:11;5.03;;;1.45;;
55031;SDS011;40928;51.076;7.950;2023-04-03T02:53:36;2.10;;;1.45;;
55031;SDS011;40928;51.076;7.950;2023-04-03T02:59:24;3.83;;;1.27;;
55031;SDS011;40928;51.076;7.950;2023-04-03T03:01:50;1.30;;;1.20;;
55031;SDS011;40928;51.076;7.950;2023-04-03T03:04:15;3.15;;;1.10;;
55031;SDS011;40928;51.076;7.950;2023-04-03T03:06:41;3.30;;;1.05;;
55031;SDS011;40928;51.076;7.950;2023-04-03T03:09:07;7.35;;;1.50;;
55031;SDS011;40928;51.076;7.950;2023-04-03T03:11:32;2.22;;;1.52;;
55031;SDS011;40928;51.076;7.950;2023-04-03T03:13:58;4.18;;;1.23;;
55031;SDS011;40928;51.076;7.950;2023-04-03T03:16:24;3.38;;;1.55;;
55031;SDS011;40928;51.076;7.950;2023-04-03T03:18:50;8.15;;;1.23;;
55031;SDS011;40928;51.076;7.950;2023-04-03T03:21:16;4.65;;;1.70;;
55031;SDS011;40928;51.076;7.950;2023-04-03T03:23:41;3.08;;;1.77;;
55031;SDS011;40928;51.076;7.950;2023-04-03T03:26:08;3.97;;;1.77;;
55031;SDS011;40928;51.076;7.950;2023-04-03T03:28:35;2.55;;;1.40;;
55031;SDS011;40928;51.076;7.950;2023-04-03T03:31:02;7.63;;;2.70;;
55031;SDS011;40928;51.076;7.950;2023-04-03T03:33:29;3.30;;;2.13;;
55031;SDS011;40928;51.076;7.950;2023-04-03T03:35:55;3.60;;;1.55;;
55031;SDS011;40928;51.076;7.950;2023-04-03T03:38:21;3.83;;;1.52;;
55031;SDS011;40928;51.076;7.950;2023-04-03T03:40:47;2.80;;;1.77;;
55031;SDS011;40928;51.076;7.950;2023-04-03T03:43:15;6.20;;;2.17;;
55031;SDS011;40928;51.076;7.950;2023-04-03T03:45:42;4.13;;;2.00;;
55031;SDS011;40928;51.076;7.950;2023-04-03T03:48:08;2.65;;;1.98;;
55031;SDS011;40928;51.076;7.950;2023-04-03T03:50:34;5.72;;;1.90;;
55031;SDS011;40928;51.076;7.950;2023-04-03T03:52:59;12.35;;;2.28;;
55031;SDS011;40928;51.076;7.950;2023-04-03T03:55:25;1.70;;;1.40;;
55031;SDS011;40928;51.076;7.950;2023-04-03T03:57:53;7.25;;;2.85;;
55031;SDS011;40928;51.076;7.950;2023-04-03T04:00:20;6.88;;;2.67;;
55031;SDS011;40928;51.076;7.950;2023-04-03T04:02:51;3.50;;;2.03;;
55031;SDS011;40928;51.076;7.950;2023-04-03T04:05:19;3.83;;;1.73;;
55031;SDS011;40928;51.076;7.950;2023-04-03T04:07:45;4.57;;;1.95;;
55031;SDS011;40928;51.076;7.950;2023-04-03T04:10:11;3.83;;;1.90;;
55031;SDS011;40928;51.076;7.950;2023-04-03T04:12:38;2.13;;;1.20;;
55031;SDS011;40928;51.076;7.950;2023-04-03T04:15:04;3.25;;;1.75;;
55031;SDS011;40928;51.076;7.950;2023-04-03T04:17:30;3.53;;;1.40;;
55031;SDS011;40928;51.076;7.950;2023-04-03T04:19:56;3.25;;;1.58;;
55031;SDS011;40928;51.076;7.950;2023-04-03T04:22:22;2.65;;;1.27;;
55031;SDS011;40928;51.076;7.950;2023-04-03T04:24:47;3.47;;;1.40;;
55031;SDS011;40928;51.076;7.950;2023-04-03T04:27:13;3.83;;;1.30;;
55031;SDS011;40928;51.076;7.950;2023-04-03T04:29:39;4.20;;;1.50;;
55031;SDS011;40928;51.076;7.950;2023-04-03T04:32:06;4.80;;;1.75;;
55031;SDS011;40928;51.076;7.950;2023-04-03T04:34:33;2.58;;;1.45;;
55031;SDS011;40928;51.076;7.950;2023-04-03T04:36:59;4.68;;;1.33;;
55031;SDS011;40928;51.076;7.950;2023-04-03T04:39:26;4.47;;;1.65;;
55031;SDS011;40928;51.076;7.950;2023-04-03T04:41:54;2.00;;;1.27;;
55031;SDS011;40928;51.076;7.950;2023-04-03T04:44:21;3.63;;;1.48;;
55031;SDS011;40928;51.076;7.950;2023-04-03T04:46:46;6.88;;;1.35;;
55031;SDS011;40928;51.076;7.950;2023-04-03T04:49:12;2.17;;;1.33;;
55031;SDS011;40928;51.076;7.950;2023-04-03T04:51:37;2.17;;;1.30;;
55031;SDS011;40928;51.076;7.950;2023-04-03T04:54:03;3.28;;;1.65;;
55031;SDS011;40928;51.076;7.950;2023-04-03T04:56:29;1.77;;;0.98;;
55031;SDS011;40928;51.076;7.950;2023-04-03T04:58:55;2.80;;;1.35;;
55031;SDS011;40928;51.076;7.950;2023-04-03T05:01:22;4.43;;;1.48;;
55031;SDS011;40928;51.076;7.950;2023-04-03T05:03:55;6.70;;;1.98;;
55031;SDS011;40928;51.076;7.950;2023-04-03T05:06:22;3.72;;;1.80;;
55031;SDS011;40928;51.076;7.950;2023-04-03T05:08:48;6.80;;;1.58;;
55031;SDS011;40928;51.076;7.950;2023-04-03T05:11:15;2.83;;;1.50;;
55031;SDS011;40928;51.076;7.950;2023-04-03T05:13:42;6.10;;;1.67;;
55031;SDS011;40928;51.076;7.950;2023-04-03T05:16:08;3.97;;;1.75;;
55031;SDS011;40928;51.076;7.950;2023-04-03T05:18:34;5.55;;;2.08;;
55031;SDS011;40928;51.076;7.950;2023-04-03T05:21:04;6.20;;;1.92;;
55031;SDS011;40928;51.076;7.950;2023-04-03T05:23:30;3.25;;;1.92;;
55031;SDS011;40928;51.076;7.950;2023-04-03T05:25:58;5.78;;;1.88;;
55031;SDS011;40928;51.076;7.950;2023-04-03T05:28:25;2.38;;;1.20;;
55031;SDS011;40928;51.076;7.950;2023-04-03T05:30:56;4.93;;;2.28;;
55031;SDS011;40928;51.076;7.950;2023-04-03T05:33:25;3.10;;;1.42;;
55031;SDS011;40928;51.076;7.950;2023-04-03T05:35:53;5.90;;;1.65;;
55031;SDS011;40928;51.076;7.950;2023-04-03T05:38:24;5.50;;;1.63;;
55031;SDS011;40928;51.076;7.950;2023-04-03T05:40:50;6.07;;;2.28;;
55031;SDS011;40928;51.076;7.950;2023-04-03T05:43:16;4.07;;;1.65;;
55031;SDS011;40928;51.076;7.950;2023-04-03T05:45:43;4.18;;;1.60;;
55031;SDS011;40928;51.076;7.950;2023-04-03T05:48:08;8.07;;;2.15;;
55031;SDS011;40928;51.076;7.950;2023-04-03T05:50:35;6.65;;;1.77;;
55031;SDS011;40928;51.076;7.950;2023-04-03T05:53:01;7.15;;;1.98;;
55031;SDS011;40928;51.076;7.950;2023-04-03T05:55:31;3.67;;;2.17;;
55031;SDS011;40928;51.076;7.950;2023-04-03T05:57:56;3.83;;;1.70;;
55031;SDS011;40928;51.076;7.950;2023-04-03T06:00:22;5.95;;;1.90;;
55031;SDS011;40928;51.076;7.950;2023-04-03T06:02:57;5.72;;;1.45;;
55031;SDS011;40928;51.076;7.950;2023-04-03T06:05:24;5.75;;;1.55;;
55031;SDS011;40928;51.076;7.950;2023-04-03T06:07:49;2.13;;;1.38;;
55031;SDS011;40928;51.076;7.950;2023-04-03T06:10:15;3.00;;;1.30;;
55031;SDS011;40928;51.076;7.950;2023-04-03T06:12:41;4.65;;;1.70;;
55031;SDS011;40928;51.076;7.950;2023-04-03T06:15:07;5.93;;;2.60;;
55031;SDS011;40928;51.076;7.950;2023-04-03T06:17:35;4.25;;;2.00;;
55031;SDS011;40928;51.076;7.950;2023-04-03T06:20:02;7.80;;;2.20;;
55031;SDS011;40928;51.076;7.950;2023-04-03T06:22:28;4.05;;;2.90;;
55031;SDS011;40928;51.076;7.950;2023-04-03T06:24:55;13.30;;;3.60;;
55031;SDS011;40928;51.076;7.950;2023-04-03T06:27:22;6.47;;;3.10;;
55031;SDS011;40928;51.076;7.950;2023-04-03T06:29:47;2.67;;;1.70;;
55031;SDS011;40928;51.076;7.950;2023-04-03T06:32:14;9.27;;;1.60;;
55031;SDS011;40928;51.076;7.950;2023-04-03T06:34:41;8.32;;;2.15;;
55031;SDS011;40928;51.076;7.950;2023-04-03T06:37:12;6.25;;;1.13;;
55031;SDS011;40928;51.076;7.950;2023-04-03T06:39:43;2.10;;;1.40;;
55031;SDS011;40928;51.076;7.950;2023-04-03T06:42:10;3.03;;;1.25;;
55031;SDS011;40928;51.076;7.950;2023-04-03T06:44:45;6.57;;;1.05;;
55031;SDS011;40928;51.076;7.950;2023-04-03T06:47:11;6.32;;;1.67;;
55031;SDS011;40928;51.076;7.950;2023-04-03T06:49:38;1.80;;;1.13;;
55031;SDS011;40928;51.076;7.950;2023-04-03T06:52:03;2.15;;;1.10;;
55031;SDS011;40928;51.076;7.950;2023-04-03T06:54:30;3.22;;;1.75;;
55031;SDS011;40928;51.076;7.950;2023-04-03T06:56:56;2.03;;;0.90;;
55031;SDS011;40928;51.076;7.950;2023-04-03T06:59:22;3.88;;;0.88;;
55031;SDS011;40928;51.076;7.950;2023-04-03T07:01:48;5.30;;;1.30;;
55031;SDS011;40928;51.076;7.950;2023-04-03T07:04:14;5.40;;;0.98;;
55031;SDS011;40928;51.076;7.950;2023-04-03T07:06:40;5.07;;;0.90;;
55031;SDS011;40928;51.076;7.950;2023-04-03T07:09:07;6.10;;;1.23;;
55031;SDS011;40928;51.076;7.950;2023-04-03T07:11:34;5.45;;;1.10;;
55031;SDS011;40928;51.076;7.950;2023-04-03T07:14:00;3.38;;;1.05;;
55031;SDS011;40928;51.076;7.950;2023-04-03T07:16:25;4.65;;;1.10;;
55031;SDS011;40928;51.076;7.950;2023-04-03T07:18:51;4.93;;;1.52;;
55031;SDS011;40928;51.076;7.950;2023-04-03T07:21:16;7.40;;;1.45;;
55031;SDS011;40928;51.076;7.950;2023-04-03T07:23:42;6.80;;;1.30;;
55031;SDS011;40928;51.076;7.950;2023-04-03T07:26:07;3.70;;;1.20;;
55031;SDS011;40928;51.076;7.950;2023-04-03T07:28:33;3.95;;;1.38;;
55031;SDS011;40928;51.076;7.950;2023-04-03T07:31:00;2.95;;;0.90;;
55031;SDS011;40928;51.076;7.950;2023-04-03T07:33:25;4.22;;;0.90;;
55031;SDS011;40928;51.076;7.950;2023-04-03T07:35:51;3.25;;;1.00;;
55031;SDS011;40928;51.076;7.950;2023-04-03T07:38:17;9.45;;;0.63;;
55031;SDS011;40928;51.076;7.950;2023-04-03T07:40:49;5.60;;;1.27;;
55031;SDS011;40928;51.076;7.950;2023-04-03T07:43:16;2.60;;;0.90;;
55031;SDS011;40928;51.076;7.950;2023-04-03T07:45:42;7.78;;;1.38;;
55031;SDS011;40928;51.076;7.950;2023-04-03T07:48:09;4.72;;;1.20;;
55031;SDS011;40928;51.076;7.950;2023-04-03T07:50:35;6.40;;;0.93;;
55031;SDS011;40928;51.076;7.950;2023-04-03T07:53:01;4.63;;;0.93;;
55031;SDS011;40928;51.076;7.950;2023-04-03T07:55:27;3.78;;;0.95;;
55031;SDS011;40928;51.076;7.950;2023-04-03T07:57:53;5.30;;;1.10;;
55031;SDS011;40928;51.076;7.950;2023-04-03T08:00:19;7.18;;;1.77;;
55031;SDS011;40928;51.076;7.950;2023-04-03T08:02:44;4.18;;;0.93;;
55031;SDS011;40928;51.076;7.950;2023-04-03T08:05:15;5.75;;;0.88;;
55031;SDS011;40928;51.076;7.950;2023-04-03T08:07:42;3.90;;;0.80;;
55031;SDS011;40928;51.076;7.950;2023-04-03T08:10:08;7.93;;;1.02;;
55031;SDS011;40928;51.076;7.950;2023-04-03T08:12:33;1.80;;;0.73;;
55031;SDS011;40928;51.076;7.950;2023-04-03T08:14:59;3.47;;;0.77;;
55031;SDS011;40928;51.076;7.950;2023-04-03T08:17:26;5.07;;;0.88;;
55031;SDS011;40928;51.076;7.950;2023-04-03T08:19:52;2.40;;;0.63;;
55031;SDS011;40928;51.076;7.950;2023-04-03T08:22:17;3.00;;;0.55;;
55031;SDS011;40928;51.076;7.950;2023-04-03T08:24:43;2.63;;;0.40;;
55031;SDS011;40928;51.076;7.950;2023-04-03T08:27:08;1.33;;;0.60;;
55031;SDS011;40928;51.076;7.950;2023-04-03T08:29:34;1.58;;;0.40;;
55031;SDS011;40928;51.076;7.950;2023-04-03T08:32:03;0.70;;;0.40;;
55031;SDS011;40928;51.076;7.950;2023-04-03T08:34:29;5.55;;;0.75;;
55031;SDS011;40928;51.076;7.950;2023-04-03T08:36:55;1.05;;;0.45;;
55031;SDS011;40928;51.076;7.950;2023-04-03T08:39:20;1.45;;;0.35;;
55031;SDS011;40928;51.076;7.950;2023-04-03T08:41:46;2.70;;;0.57;;
55031;SDS011;40928;51.076;7.950;2023-04-03T08:47:32;2.20;;;0.60;;
55031;SDS011;40928;51.076;7.950;2023-04-03T08:50:12;2.08;;;0.55;;
55031;SDS011;40928;51.076;7.950;2023-04-03T08:52:51;2.63;;;0.40;;
55031;SDS011;40928;51.076;7.950;2023-04-03T08:55:25;1.10;;;0.50;;
55031;SDS011;40928;51.076;7.950;2023-04-03T08:57:57;2.92;;;0.60;;
55031;SDS011;40928;51.076;7.950;2023-04-03T09:01:17;1.25;;;0.38;;
55031;SDS011;40928;51.076;7.950;2023-04-03T09:03:28;2.17;;;0.50;;
55031;SDS011;40928;51.076;7.950;2023-04-03T09:06:00;6.45;;;0.63;;
55031;SDS011;40928;51.076;7.950;2023-04-03T09:14:02;2.85;;;0.40;;
55031;SDS011;40928;51.076;7.950;2023-04-03T09:19:53;0.95;;;0.38;;
55031;SDS011;40928;51.076;7.950;2023-04-03T09:22:27;1.55;;;0.55;;
55031;SDS011;40928;51.076;7.950;2023-04-03T09:25:01;3.75;;;0.50;;
55031;SDS011;40928;51.076;7.950;2023-04-03T09:27:33;2.38;;;0.40;;
55031;SDS011;40928;51.076;7.950;2023-04-03T09:29:59;2.50;;;0.38;;
55031;SDS011;40928;51.076;7.950;2023-04-03T09:32:31;1.27;;;0.43;;
55031;SDS011;40928;51.076;7.950;2023-04-03T09:35:01;2.87;;;0.60;;
55031;SDS011;40928;51.076;7.950;2023-04-03T09:37:34;0.52;;;0.30;;
55031;SDS011;40928;51.076;7.950;2023-04-03T09:40:02;3.47;;;0.30;;
55031;SDS011;40928;51.076;7.950;2023-04-03T09:42:29;2.53;;;0.88;;
55031;SDS011;40928;51.076;7.950;2023-04-03T09:44:58;0.80;;;0.35;;
55031;SDS011;40928;51.076;7.950;2023-04-03T09:47:26;1.60;;;0.38;;
55031;SDS011;40928;51.076;7.950;2023-04-03T09:52:37;0.93;;;0.30;;
55031;SDS011;40928;51.076;7.950;2023-04-03T09:55:22;1.48;;;0.38;;
55031;SDS011;40928;51.076;7.950;2023-04-03T10:00:30;0.77;;;0.25;;
55031;SDS011;40928;51.076;7.950;2023-04-03T10:02:59;1.13;;;0.50;;
55031;SDS011;40928;51.076;7.950;2023-04-03T10:07:50;1.27;;;0.40;;
55031;SDS011;40928;51.076;7.950;2023-04-03T10:10:18;4.40;;;0.93;;
55031;SDS011;40928;51.076;7.950;2023-04-03T10:12:45;2.50;;;0.50;;
55031;SDS011;40928;51.076;7.950;2023-04-03T10:15:11;1.23;;;0.40;;
55031;SDS011;40928;51.076;7.950;2023-04-03T10:17:50;2.95;;;0.60;;
55031;SDS011;40928;51.076;7.950;2023-04-03T10:36:29;2.22;;;0.30;;
55031;SDS011;40928;51.076;7.950;2023-04-03T10:58:30;1.70;;;0.35;;
55031;SDS011;40928;51.076;7.950;2023-04-03T11:01:06;2.15;;;0.38;;
55031;SDS011;40928;51.076;7.950;2023-04-03T11:03:37;0.73;;;0.35;;
55031;SDS011;40928;51.076;7.950;2023-04-03T11:06:07;2.13;;;0.50;;
55031;SDS011;40928;51.076;7.950;2023-04-03T11:11:13;0.95;;;0.40;;
55031;SDS011;40928;51.076;7.950;2023-04-03T11:16:13;1.33;;;0.43;;
55031;SDS011;40928;51.076;7.950;2023-04-03T11:18:58;2.28;;;0.40;;
55031;SDS011;40928;51.076;7.950;2023-04-03T11:21:40;1.52;;;0.50;;
55031;SDS011;40928;51.076;7.950;2023-04-03T11:24:17;4.22;;;0.70;;
55031;SDS011;40928;51.076;7.950;2023-04-03T11:26:49;1.40;;;0.40;;
55031;SDS011;40928;51.076;7.950;2023-04-03T11:29:24;2.58;;;0.47;;
55031;SDS011;40928;51.076;7.950;2023-04-03T11:32:04;1.25;;;0.40;;
55031;SDS011;40928;51.076;7.950;2023-04-03T11:34:51;1.95;;;0.70;;
55031;SDS011;40928;51.076;7.950;2023-04-03T11:37:31;2.03;;;0.50;;
55031;SDS011;40928;51.076;7.950;2023-04-03T11:42:46;1.73;;;0.47;;
55031;SDS011;40928;51.076;7.950;2023-04-03T11:45:16;1.10;;;0.30;;
55031;SDS011;40928;51.076;7.950;2023-04-03T11:50:44;0.80;;;0.30;;
55031;SDS011;40928;51.076;7.950;2023-04-03T11:55:51;2.63;;;0.77;;
55031;SDS011;40928;51.076;7.950;2023-04-03T11:58:23;3.53;;;0.60;;
55031;SDS011;40928;51.076;7.950;2023-04-03T12:00:54;3.40;;;0.43;;
55031;SDS011;40928;51.076;7.950;2023-04-03T12:16:42;1.30;;;0.65;;
55031;SDS011;40928;51.076;7.950;2023-04-03T12:24:36;3.65;;;0.68;;
55031;SDS011;40928;51.076;7.950;2023-04-03T12:35:30;5.18;;;0.60;;
55031;SDS011;40928;51.076;7.950;2023-04-03T12:38:19;2.25;;;0.40;;
55031;SDS011;40928;51.076;7.950;2023-04-03T12:41:21;2.63;;;0.70;;
55031;SDS011;40928;51.076;7.950;2023-04-03T12:46:49;1.05;;;0.45;;
55031;SDS011;40928;51.076;7.950;2023-04-03T12:52:18;0.93;;;0.50;;
55031;SDS011;40928;51.076;7.950;2023-04-03T12:54:51;1.80;;;0.50;;
55031;SDS011;40928;51.076;7.950;2023-04-03T12:57:19;1.48;;;0.50;;
55031;SDS011;40928;51.076;7.950;2023-04-03T12:59:52;1.02;;;0.50;;
55031;SDS011;40928;51.076;7.950;2023-04-03T13:05:02;1.77;;;0.60;;
55031;SDS011;40928;51.076;7.950;2023-04-03T13:07:32;2.28;;;0.80;;
55031;SDS011;40928;51.076;7.950;2023-04-03T13:10:10;2.33;;;0.40;;
55031;SDS011;40928;51.076;7.950;2023-04-03T13:12:57;1.85;;;0.40;;
55031;SDS011;40928;51.076;7.950;2023-04-03T13:15:42;2.47;;;0.57;;
55031;SDS011;40928;51.076;7.950;2023-04-03T13:20:49;2.55;;;1.20;;
55031;SDS011;40928;51.076;7.950;2023-04-03T13:23:16;2.92;;;1.13;;
55031;SDS011;40928;51.076;7.950;2023-04-03T13:25:45;9.05;;;0.70;;
55031;SDS011;40928;51.076;7.950;2023-04-03T13:28:13;3.00;;;0.93;;
55031;SDS011;40928;51.076;7.950;2023-04-03T13:30:54;2.85;;;0.60;;
55031;SDS011;40928;51.076;7.950;2023-04-03T13:33:39;1.88;;;0.50;;
55031;SDS011;40928;51.076;7.950;2023-04-03T13:36:31;3.65;;;0.65;;
55031;SDS011;40928;51.076;7.950;2023-04-03T13:39:02;2.03;;;0.50;;
55031;SDS011;40928;51.076;7.950;2023-04-03T13:41:31;4.40;;;0.75;;
55031;SDS011;40928;51.076;7.950;2023-04-03T13:44:14;4.38;;;0.50;;
55031;SDS011;40928;51.076;7.950;2023-04-03T13:46:49;6.05;;;0.50;;
55031;SDS011;40928;51.076;7.950;2023-04-03T13:49:27;1.33;;;0.50;;
55031;SDS011;40928;51.076;7.950;2023-04-03T13:51:56;2.00;;;0.57;;
55031;SDS011;40928;51.076;7.950;2023-04-03T13:54:29;2.53;;;0.60;;
55031;SDS011;40928;51.076;7.950;2023-04-03T13:56:59;6.93;;;0.50;;
55031;SDS011;40928;51.076;7.950;2023-04-03T13:59:30;2.05;;;1.10;;
55031;SDS011;40928;51.076;7.950;2023-04-03T14:07:13;4.25;;;0.65;;
55031;SDS011;40928;51.076;7.950;2023-04-03T14:09:41;2.88;;;1.08;;
55031;SDS011;40928;51.076;7.950;2023-04-03T14:12:52;1.33;;;0.43;;
55031;SDS011;40928;51.076;7.950;2023-04-03T14:15:01;3.30;;;0.55;;
55031;SDS011;40928;51.076;7.950;2023-04-03T14:17:29;2.63;;;0.45;;
55031;SDS011;40928;51.076;7.950;2023-04-03T14:19:57;2.92;;;0.65;;
55031;SDS011;40928;51.076;7.950;2023-04-03T14:24:50;1.58;;;0.60;;
55031;SDS011;40928;51.076;7.950;2023-04-03T14:27:22;5.00;;;0.80;;
55031;SDS011;40928;51.076;7.950;2023-04-03T14:29:54;2.92;;;0.85;;
55031;SDS011;40928;51.076;7.950;2023-04-03T14:32:21;1.27;;;0.68;;
55031;SDS011;40928;51.076;7.950;2023-04-03T14:34:48;0.93;;;0.40;;
55031;SDS011;40928;51.076;7.950;2023-04-03T14:37:18;7.95;;;0.73;;
55031;SDS011;40928;51.076;7.950;2023-04-03T14:39:47;1.45;;;0.60;;
55031;SDS011;40928;51.076;7.950;2023-04-03T14:42:14;2.25;;;0.52;;
55031;SDS011;40928;51.076;7.950;2023-04-03T14:44:42;3.47;;;0.70;;
55031;SDS011;40928;51.076;7.950;2023-04-03T14:47:15;2.80;;;0.88;;
55031;SDS011;40928;51.076;7.950;2023-04-03T14:49:43;1.60;;;0.70;;
55031;SDS011;40928;51.076;7.950;2023-04-03T14:52:19;3.25;;;0.60;;
55031;SDS011;40928;51.076;7.950;2023-04-03T14:54:45;1.27;;;0.50;;
55031;SDS011;40928;51.076;7.950;2023-04-03T14:57:13;1.13;;;0.70;;
55031;SDS011;40928;51.076;7.950;2023-04-03T14:59:40;1.45;;;0.77;;
55031;SDS011;40928;51.076;7.950;2023-04-03T15:04:49;3.97;;;0.65;;
55031;SDS011;40928;51.076;7.950;2023-04-03T15:07:15;2.20;;;0.73;;
55031;SDS011;40928;51.076;7.950;2023-04-03T15:09:41;1.80;;;0.60;;
55031;SDS011;40928;51.076;7.950;2023-04-03T15:12:07;4.57;;;0.70;;
55031;SDS011;40928;51.076;7.950;2023-04-03T15:14:33;1.13;;;0.50;;
55031;SDS011;40928;51.076;7.950;2023-04-03T15:16:59;2.17;;;0.50;;
55031;SDS011;40928;51.076;7.950;2023-04-03T15:19:25;2.97;;;0.52;;
55031;SDS011;40928;51.076;7.950;2023-04-03T15:21:50;4.10;;;0.70;;
55031;SDS011;40928;51.076;7.950;2023-04-03T15:24:16;2.35;;;0.50;;
55031;SDS011;40928;51.076;7.950;2023-04-03T15:26:41;3.47;;;0.50;;
55031;SDS011;40928;51.076;7.950;2023-04-03T15:29:07;6.57;;;0.85;;
55031;SDS011;40928;51.076;7.950;2023-04-03T15:31:33;3.58;;;0.77;;
55031;SDS011;40928;51.076;7.950;2023-04-03T15:33:59;1.90;;;0.60;;
55031;SDS011;40928;51.076;7.950;2023-04-03T15:36:24;2.08;;;1.23;;
55031;SDS011;40928;51.076;7.950;2023-04-03T15:38:50;3.83;;;0.70;;
55031;SDS011;40928;51.076;7.950;2023-04-03T15:41:15;4.20;;;0.80;;
55031;SDS011;40928;51.076;7.950;2023-04-03T15:43:41;3.15;;;0.50;;
55031;SDS011;40928;51.076;7.950;2023-04-03T15:46:06;7.90;;;1.02;;
55031;SDS011;40928;51.076;7.950;2023-04-03T15:48:32;3.85;;;0.88;;
55031;SDS011;40928;51.076;7.950;2023-04-03T15:50:58;1.83;;;0.73;;
55031;SDS011;40928;51.076;7.950;2023-04-03T15:53:25;2.28;;;0.47;;
55031;SDS011;40928;51.076;7.950;2023-04-03T15:55:50;6.43;;;1.10;;
55031;SDS011;40928;51.076;7.950;2023-04-03T15:58:16;0.65;;;0.60;;
55031;SDS011;40928;51.076;7.950;2023-04-03T16:00:42;4.80;;;0.50;;
55031;SDS011;40928;51.076;7.950;2023-04-03T16:03:25;1.63;;;0.52;;
55031;SDS011;40928;51.076;7.950;2023-04-03T16:05:51;4.00;;;0.60;;
55031;SDS011;40928;51.076;7.950;2023-04-03T16:08:17;1.33;;;0.52;;
55031;SDS011;40928;51.076;7.950;2023-04-03T16:10:43;3.80;;;0.95;;
55031;SDS011;40928;51.076;7.950;2023-04-03T16:13:11;4.55;;;1.00;;
55031;SDS011;40928;51.076;7.950;2023-04-03T16:15:37;2.33;;;0.93;;
55031;SDS011;40928;51.076;7.950;2023-04-03T16:18:03;2.58;;;0.90;;
55031;SDS011;40928;51.076;7.950;2023-04-03T16:20:29;2.33;;;0.90;;
55031;SDS011;40928;51.076;7.950;2023-04-03T16:22:56;1.77;;;0.70;;
55031;SDS011;40928;51.076;7.950;2023-04-03T16:25:24;1.85;;;0.68;;
55031;SDS011;40928;51.076;7.950;2023-04-03T16:27:49;0.70;;;0.50;;
55031;SDS011;40928;51.076;7.950;2023-04-03T16:30:15;2.55;;;0.70;;
55031;SDS011;40928;51.076;7.950;2023-04-03T16:32:41;3.13;;;0.85;;
55031;SDS011;40928;51.076;7.950;2023-04-03T16:35:07;2.70;;;0.70;;
55031;SDS011;40928;51.076;7.950;2023-04-03T16:37:35;3.05;;;0.60;;
55031;SDS011;40928;51.076;7.950;2023-04-03T16:40:01;9.63;;;1.00;;
55031;SDS011;40928;51.076;7.950;2023-04-03T16:42:28;4.30;;;0.70;;
55031;SDS011;40928;51.076;7.950;2023-04-03T16:44:53;3.53;;;0.77;;
55031;SDS011;40928;51.076;7.950;2023-04-03T16:47:19;1.30;;;0.50;;
55031;SDS011;40928;51.076;7.950;2023-04-03T16:49:45;4.75;;;0.90;;
55031;SDS011;40928;51.076;7.950;2023-04-03T16:52:11;3.40;;;0.93;;
55031;SDS011;40928;51.076;7.950;2023-04-03T16:54:37;8.15;;;0.90;;
55031;SDS011;40928;51.076;7.950;2023-04-03T16:57:02;2.90;;;0.90;;
55031;SDS011;40928;51.076;7.950;2023-04-03T16:59:28;3.47;;;0.85;;
55031;SDS011;40928;51.076;7.950;2023-04-03T17:01:53;3.25;;;0.80;;
55031;SDS011;40928;51.076;7.950;2023-04-03T17:04:19;1.05;;;0.45;;